Time;durP1;ratioP1;P1;durP2;ratioP2;P2;SDS_P1;SDS_P2;PMS_P1;PMS_P2;Temp;Humidity;BMP_temperature;BMP_pressure;BME280_temperature;BME280_humidity;BME280_pressure;Samples;Min_cycle;Max_cycle;Signal;HPM_P1;HPM_P2
2023/03/18 00:02:21;;;;;;;16.25;6.05;;;;;;;;;;5050040;28;20020;-68
2023/03/18 00:04:47;;;;;;;11.85;5.68;;;;;;;;;;5056562;28;20402;-67
2023/03/18 00:07:12;;;;;;;13.05;5.10;;;;;;;;;;5048596;28;20025;-69
2023/03/18 00:09:37;;;;;;;12.75;5.00;;;;;;;;;;5048335;28;20534;-69
2023/03/18 00:12:03;;;;;;;15.70;5.13;;;;;;;;;;5048860;28;20021;-67
2023/03/18 00:14:29;;;;;;;14.57;4.97;;;;;;;;;;5048870;28;20025;-67
2023/03/18 00:16:54;;;;;;;19.70;6.95;;;;;;;;;;5048424;28;20025;-68
2023/03/18 00:19:20;;;;;;;22.92;7.65;;;;;;;;;;5050315;28;20127;-68
2023/03/18 00:21:45;;;;;;;20.38;7.22;;;;;;;;;;5047676;28;20009;-68
2023/03/18 00:24:11;;;;;;;16.70;7.15;;;;;;;;;;5048663;28;20021;-69
2023/03/18 00:26:36;;;;;;;17.35;6.88;;;;;;;;;;5048487;28;20016;-68
2023/03/18 00:29:02;;;;;;;19.23;7.80;;;;;;;;;;5048877;28;20497;-68
2023/03/18 00:31:28;;;;;;;21.27;7.93;;;;;;;;;;5046957;28;20024;-69
2023/03/18 00:33:53;;;;;;;19.85;7.68;;;;;;;;;;5034136;28;20122;-69
2023/03/18 00:36:24;;;;;;;21.42;7.32;;;;;;;;;;5037975;28;20020;-69
2023/03/18 00:38:50;;;;;;;18.60;7.32;;;;;;;;;;5045581;28;20522;-67
2023/03/18 00:41:15;;;;;;;20.73;7.88;;;;;;;;;;5048349;28;20085;-69
2023/03/18 00:43:45;;;;;;;18.80;6.97;;;;;;;;;;5051663;28;20017;-68
2023/03/18 00:46:12;;;;;;;20.95;7.15;;;;;;;;;;5044868;28;20013;-69
2023/03/18 00:48:37;;;;;;;17.08;6.95;;;;;;;;;;5049060;28;20036;-69
2023/03/18 00:51:03;;;;;;;14.60;6.43;;;;;;;;;;5045508;28;20036;-69
2023/03/18 00:53:29;;;;;;;16.50;6.57;;;;;;;;;;5042858;28;20037;-71
2023/03/18 00:55:54;;;;;;;16.77;6.88;;;;;;;;;;5046353;28;20032;-69
2023/03/18 00:58:19;;;;;;;15.05;6.95;;;;;;;;;;5052166;28;20414;-68
2023/03/18 01:00:44;;;;;;;15.18;7.00;;;;;;;;;;5049492;28;20048;-69
2023/03/18 01:03:09;;;;;;;17.38;6.93;;;;;;;;;;5048932;28;20021;-69
2023/03/18 01:05:35;;;;;;;19.60;6.97;;;;;;;;;;5048352;28;20479;-70
2023/03/18 01:08:01;;;;;;;16.58;7.00;;;;;;;;;;5045336;28;20414;-70
2023/03/18 01:10:29;;;;;;;15.25;6.55;;;;;;;;;;5043981;28;20544;-66
2023/03/18 01:12:54;;;;;;;15.93;6.47;;;;;;;;;;5052510;28;20104;-70
2023/03/18 01:15:20;;;;;;;18.50;6.40;;;;;;;;;;5049491;28;20104;-71
2023/03/18 01:17:46;;;;;;;17.00;6.63;;;;;;;;;;5048765;28;20013;-67
2023/03/18 01:20:12;;;;;;;23.17;6.95;;;;;;;;;;5048758;28;20017;-69
2023/03/18 01:22:40;;;;;;;18.10;6.47;;;;;;;;;;5049487;28;20100;-67
2023/03/18 01:25:08;;;;;;;16.15;6.15;;;;;;;;;;5048921;28;20021;-69
2023/03/18 01:27:34;;;;;;;16.38;6.13;;;;;;;;;;5049184;28;20017;-69
2023/03/18 01:30:00;;;;;;;18.67;5.65;;;;;;;;;;5048218;28;20048;-69
2023/03/18 01:32:25;;;;;;;14.02;5.85;;;;;;;;;;5048848;28;20025;-70
2023/03/18 01:34:50;;;;;;;13.98;5.70;;;;;;;;;;5048639;28;20020;-70
2023/03/18 01:37:16;;;;;;;23.35;6.22;;;;;;;;;;5046045;28;20052;-68
2023/03/18 01:39:41;;;;;;;15.45;5.50;;;;;;;;;;5052775;28;20087;-68
2023/03/18 01:42:06;;;;;;;11.40;5.13;;;;;;;;;;5053321;28;20040;-68
2023/03/18 01:44:31;;;;;;;17.70;5.35;;;;;;;;;;5051881;28;20151;-69
2023/03/18 01:46:57;;;;;;;14.93;5.43;;;;;;;;;;5052112;28;20025;-66
2023/03/18 01:49:24;;;;;;;17.52;5.88;;;;;;;;;;5052385;28;20047;-69
2023/03/18 01:51:56;;;;;;;14.10;6.15;;;;;;;;;;5052785;28;20090;-70
2023/03/18 01:54:22;;;;;;;14.40;5.07;;;;;;;;;;5052739;28;20020;-71
2023/03/18 01:56:50;;;;;;;14.30;6.82;;;;;;;;;;5073300;28;20035;-68
2023/03/18 01:59:16;;;;;;;17.73;5.43;;;;;;;;;;5054883;28;20078;-68
2023/03/18 02:01:48;;;;;;;14.45;5.78;;;;;;;;;;5074591;28;20028;-68
2023/03/18 02:04:14;;;;;;;19.05;6.07;;;;;;;;;;5061653;28;20039;-67
2023/03/18 02:06:39;;;;;;;11.13;5.55;;;;;;;;;;5075050;28;20024;-68
2023/03/18 02:09:05;;;;;;;16.83;5.72;;;;;;;;;;5056752;28;20131;-69
2023/03/18 02:11:32;;;;;;;14.27;5.75;;;;;;;;;;5075920;28;20024;-68
2023/03/18 02:13:58;;;;;;;16.23;5.35;;;;;;;;;;5051698;28;20021;-68
2023/03/18 02:16:26;;;;;;;12.32;5.18;;;;;;;;;;5052582;28;20495;-69
2023/03/18 02:18:57;;;;;;;20.23;7.00;;;;;;;;;;5073464;28;20039;-69
2023/03/18 02:21:34;;;;;;;17.73;6.78;;;;;;;;;;5073965;28;20036;-67
2023/03/18 02:24:00;;;;;;;19.67;6.20;;;;;;;;;;5072916;28;20021;-68
2023/03/18 02:26:40;;;;;;;12.85;5.35;;;;;;;;;;5058828;28;20104;-69
2023/03/18 02:29:06;;;;;;;13.65;5.95;;;;;;;;;;5057229;28;20010;-70
2023/03/18 02:31:33;;;;;;;13.73;5.47;;;;;;;;;;5063809;28;20094;-67
2023/03/18 02:33:59;;;;;;;15.27;5.78;;;;;;;;;;5063253;28;20013;-69
2023/03/18 02:36:27;;;;;;;12.00;5.50;;;;;;;;;;5063846;28;20384;-69
2023/03/18 02:38:52;;;;;;;11.93;5.80;;;;;;;;;;5052040;28;20009;-69
2023/03/18 02:41:20;;;;;;;12.15;5.70;;;;;;;;;;5069668;28;20108;-69
2023/03/18 02:43:45;;;;;;;17.98;5.95;;;;;;;;;;5051577;28;20067;-69
2023/03/18 02:46:25;;;;;;;16.67;5.55;;;;;;;;;;5056909;28;20021;-68
2023/03/18 02:48:51;;;;;;;15.15;5.25;;;;;;;;;;5052582;28;20025;-70
2023/03/18 02:51:17;;;;;;;12.63;4.65;;;;;;;;;;5070025;28;20467;-69
2023/03/18 02:53:43;;;;;;;11.05;5.32;;;;;;;;;;5059401;28;20021;-70
2023/03/18 02:56:09;;;;;;;12.65;5.72;;;;;;;;;;5050978;28;20406;-69
2023/03/18 02:58:35;;;;;;;20.00;6.18;;;;;;;;;;5051031;28;20028;-68
2023/03/18 03:01:01;;;;;;;14.20;4.97;;;;;;;;;;5050931;28;20131;-69
2023/03/18 03:03:27;;;;;;;12.35;5.68;;;;;;;;;;5033176;28;20017;-68
2023/03/18 03:05:53;;;;;;;15.73;5.68;;;;;;;;;;5050431;28;20410;-69
2023/03/18 03:08:19;;;;;;;17.02;5.70;;;;;;;;;;5045528;28;20484;-68
2023/03/18 03:10:45;;;;;;;17.85;5.60;;;;;;;;;;5049615;28;20044;-68
2023/03/18 03:13:10;;;;;;;10.25;4.90;;;;;;;;;;5051960;28;20025;-70
2023/03/18 03:15:37;;;;;;;18.77;5.55;;;;;;;;;;5051272;28;20025;-69
2023/03/18 03:18:03;;;;;;;16.48;5.80;;;;;;;;;;5051420;28;20045;-68
2023/03/18 03:20:28;;;;;;;15.15;5.18;;;;;;;;;;5051392;28;20102;-68
2023/03/18 03:22:54;;;;;;;13.95;5.13;;;;;;;;;;5051260;28;20096;-68
2023/03/18 03:25:19;;;;;;;13.65;5.03;;;;;;;;;;5051203;28;20037;-67
2023/03/18 03:27:44;;;;;;;16.88;5.15;;;;;;;;;;5051285;28;20030;-68
2023/03/18 03:30:11;;;;;;;12.27;4.28;;;;;;;;;;5050992;28;20028;-70
2023/03/18 03:32:36;;;;;;;16.10;4.85;;;;;;;;;;5050999;28;20092;-68
2023/03/18 03:35:01;;;;;;;15.65;5.78;;;;;;;;;;5050580;28;20558;-69
2023/03/18 03:37:27;;;;;;;12.52;5.07;;;;;;;;;;5038549;28;20021;-68
2023/03/18 03:39:52;;;;;;;12.98;5.07;;;;;;;;;;5047588;28;20029;-68
2023/03/18 03:42:17;;;;;;;10.48;4.15;;;;;;;;;;5050122;28;20032;-68
2023/03/18 03:44:44;;;;;;;11.93;5.07;;;;;;;;;;5049439;28;20581;-66
2023/03/18 03:47:10;;;;;;;11.50;4.18;;;;;;;;;;5049623;28;20021;-69
2023/03/18 03:49:35;;;;;;;11.10;4.40;;;;;;;;;;5050368;28;20103;-70
2023/03/18 03:52:00;;;;;;;15.85;5.03;;;;;;;;;;5050174;28;20017;-69
2023/03/18 03:54:26;;;;;;;12.60;4.80;;;;;;;;;;5050234;28;20494;-69
2023/03/18 03:56:52;;;;;;;10.48;3.95;;;;;;;;;;5069499;28;20158;-69
2023/03/18 03:59:17;;;;;;;18.70;4.68;;;;;;;;;;5066386;28;20020;-68
2023/03/18 04:01:43;;;;;;;10.15;3.97;;;;;;;;;;5066057;28;20079;-67
2023/03/18 04:04:08;;;;;;;11.02;4.53;;;;;;;;;;5071499;28;20100;-69
2023/03/18 04:06:33;;;;;;;14.88;4.78;;;;;;;;;;5065249;28;20110;-69
2023/03/18 04:08:59;;;;;;;12.80;4.10;;;;;;;;;;5059013;28;20163;-69
2023/03/18 04:11:24;;;;;;;10.70;4.50;;;;;;;;;;5077647;28;20643;-67
2023/03/18 04:13:49;;;;;;;9.50;4.22;;;;;;;;;;5075378;28;20020;-68
2023/03/18 04:16:15;;;;;;;19.05;4.65;;;;;;;;;;5055612;28;20063;-67
2023/03/18 04:18:41;;;;;;;10.38;4.43;;;;;;;;;;5062976;28;20499;-68
2023/03/18 04:21:06;;;;;;;10.38;4.18;;;;;;;;;;5049530;28;20025;-69
2023/03/18 04:23:32;;;;;;;11.07;4.45;;;;;;;;;;5063178;28;20036;-67
2023/03/18 04:25:57;;;;;;;11.05;4.85;;;;;;;;;;5049503;28;20036;-68
2023/03/18 04:28:23;;;;;;;12.10;4.25;;;;;;;;;;5062617;28;20090;-66
2023/03/18 04:30:48;;;;;;;10.18;4.50;;;;;;;;;;5058379;28;20024;-69
2023/03/18 04:33:13;;;;;;;11.40;4.43;;;;;;;;;;5068428;28;20048;-69
2023/03/18 04:35:38;;;;;;;13.40;5.22;;;;;;;;;;5061683;28;20048;-67
2023/03/18 04:38:04;;;;;;;13.55;4.85;;;;;;;;;;5044646;28;20025;-65
2023/03/18 04:40:29;;;;;;;8.98;4.13;;;;;;;;;;5059674;28;20092;-67
2023/03/18 04:42:55;;;;;;;19.73;4.95;;;;;;;;;;5071009;28;20063;-66
2023/03/18 04:45:21;;;;;;;13.07;4.97;;;;;;;;;;5045417;28;20029;-67
2023/03/18 04:47:46;;;;;;;9.35;4.60;;;;;;;;;;5060943;28;20009;-68
2023/03/18 04:50:12;;;;;;;16.92;4.88;;;;;;;;;;5060717;28;20028;-66
2023/03/18 04:52:38;;;;;;;7.95;4.07;;;;;;;;;;5064845;28;20630;-68
2023/03/18 04:55:04;;;;;;;12.40;4.97;;;;;;;;;;5070014;28;20100;-66
2023/03/18 04:57:30;;;;;;;14.77;4.70;;;;;;;;;;5068223;28;20025;-71
2023/03/18 04:59:56;;;;;;;23.67;6.82;;;;;;;;;;5067070;28;20027;-70
2023/03/18 05:02:21;;;;;;;15.02;4.90;;;;;;;;;;5048629;28;20028;-66
2023/03/18 05:04:46;;;;;;;13.00;4.95;;;;;;;;;;5048865;28;20025;-69
2023/03/18 05:07:14;;;;;;;11.10;4.82;;;;;;;;;;5060950;28;20101;-68
2023/03/18 05:09:40;;;;;;;12.80;4.85;;;;;;;;;;5051552;28;20025;-69
2023/03/18 05:12:05;;;;;;;9.85;4.53;;;;;;;;;;5050910;28;20028;-68
2023/03/18 05:14:31;;;;;;;12.93;5.00;;;;;;;;;;5060630;28;20051;-66
2023/03/18 05:16:57;;;;;;;12.07;4.78;;;;;;;;;;5055486;28;20518;-70
2023/03/18 05:19:22;;;;;;;8.85;4.38;;;;;;;;;;5052586;28;20017;-67
2023/03/18 05:21:48;;;;;;;14.18;5.70;;;;;;;;;;5063398;28;20020;-69
2023/03/18 05:24:14;;;;;;;11.52;5.10;;;;;;;;;;5050024;28;20069;-68
2023/03/18 05:26:39;;;;;;;11.90;5.13;;;;;;;;;;5050772;28;20127;-70
2023/03/18 05:29:04;;;;;;;9.68;4.07;;;;;;;;;;5069238;28;20086;-68
2023/03/18 05:31:30;;;;;;;11.95;4.55;;;;;;;;;;5068916;28;20627;-68
2023/03/18 05:33:55;;;;;;;13.32;4.80;;;;;;;;;;5069200;28;20154;-71
2023/03/18 05:36:21;;;;;;;17.38;5.20;;;;;;;;;;5064154;28;20059;-71
2023/03/18 05:38:46;;;;;;;10.40;4.25;;;;;;;;;;5045056;28;20032;-66
2023/03/18 05:41:11;;;;;;;11.35;4.57;;;;;;;;;;5058030;28;20386;-68
2023/03/18 05:43:37;;;;;;;10.63;4.25;;;;;;;;;;5048229;28;20060;-67
2023/03/18 05:46:04;;;;;;;15.00;5.35;;;;;;;;;;5049651;28;20111;-66
2023/03/18 05:48:29;;;;;;;12.98;4.97;;;;;;;;;;5062683;28;20025;-69
2023/03/18 05:50:54;;;;;;;13.23;4.63;;;;;;;;;;5065800;28;20021;-68
2023/03/18 05:53:19;;;;;;;12.43;4.47;;;;;;;;;;5047242;28;20036;-66
2023/03/18 05:55:45;;;;;;;12.85;4.82;;;;;;;;;;5046159;28;20025;-69
2023/03/18 05:58:10;;;;;;;14.00;5.07;;;;;;;;;;5042786;28;20025;-66
2023/03/18 06:00:36;;;;;;;17.73;5.00;;;;;;;;;;5048573;28;20021;-67
2023/03/18 06:03:02;;;;;;;10.70;4.43;;;;;;;;;;5027103;28;20017;-68
2023/03/18 06:05:27;;;;;;;16.65;5.20;;;;;;;;;;5024064;28;20021;-69
2023/03/18 06:07:53;;;;;;;13.48;4.72;;;;;;;;;;5045018;28;20068;-67
2023/03/18 06:10:19;;;;;;;14.25;4.85;;;;;;;;;;5033864;28;20025;-67
2023/03/18 06:12:44;;;;;;;13.10;4.43;;;;;;;;;;5030727;28;20048;-67
2023/03/18 06:15:11;;;;;;;27.65;5.53;;;;;;;;;;5047884;28;20075;-66
2023/03/18 06:17:36;;;;;;;20.23;5.50;;;;;;;;;;5048682;28;20469;-69
2023/03/18 06:20:02;;;;;;;14.05;5.20;;;;;;;;;;5046350;28;20552;-68
2023/03/18 06:22:27;;;;;;;14.25;5.38;;;;;;;;;;5050742;28;20024;-68
2023/03/18 06:24:53;;;;;;;10.73;4.50;;;;;;;;;;5050767;28;20170;-67
2023/03/18 06:27:18;;;;;;;15.45;5.80;;;;;;;;;;5047888;28;20116;-68
2023/03/18 06:29:43;;;;;;;12.18;4.97;;;;;;;;;;5037654;28;20033;-69
2023/03/18 06:32:09;;;;;;;23.83;5.95;;;;;;;;;;5039333;28;20033;-67
2023/03/18 06:34:35;;;;;;;17.63;5.90;;;;;;;;;;5038682;28;20070;-68
2023/03/18 06:37:01;;;;;;;16.65;5.70;;;;;;;;;;5038930;28;20044;-70
2023/03/18 06:39:27;;;;;;;14.20;5.18;;;;;;;;;;5038424;28;20105;-68
2023/03/18 06:41:53;;;;;;;13.43;5.03;;;;;;;;;;5038593;28;20053;-68
2023/03/18 06:44:19;;;;;;;13.52;4.45;;;;;;;;;;5036143;28;20056;-67
2023/03/18 06:46:45;;;;;;;11.13;4.75;;;;;;;;;;5039435;28;20979;-70
2023/03/18 06:49:11;;;;;;;12.95;5.45;;;;;;;;;;5039283;28;20123;-68
2023/03/18 06:51:36;;;;;;;11.57;5.03;;;;;;;;;;5036600;28;20052;-67
2023/03/18 06:54:02;;;;;;;22.90;5.68;;;;;;;;;;5037503;28;20032;-67
2023/03/18 06:56:27;;;;;;;14.15;5.45;;;;;;;;;;5043438;28;20479;-66
2023/03/18 06:58:53;;;;;;;12.98;5.13;;;;;;;;;;5048673;28;20489;-67
2023/03/18 07:01:19;;;;;;;12.52;4.80;;;;;;;;;;5047544;28;20085;-69
2023/03/18 07:03:44;;;;;;;26.83;6.10;;;;;;;;;;5045246;28;20052;-68
2023/03/18 07:06:10;;;;;;;23.15;6.18;;;;;;;;;;5046720;28;20107;-69
2023/03/18 07:08:35;;;;;;;12.90;5.07;;;;;;;;;;5023623;28;20506;-69
2023/03/18 07:11:02;;;;;;;13.02;5.45;;;;;;;;;;5038656;28;20037;-68
2023/03/18 07:13:27;;;;;;;14.43;5.50;;;;;;;;;;5035482;28;20036;-66
2023/03/18 07:15:55;;;;;;;18.40;6.03;;;;;;;;;;5036825;28;20347;-68
2023/03/18 07:18:23;;;;;;;10.90;4.28;;;;;;;;;;5037107;28;20221;-71
2023/03/18 07:20:49;;;;;;;13.43;5.22;;;;;;;;;;5038367;28;20124;-67
2023/03/18 07:23:14;;;;;;;15.63;5.32;;;;;;;;;;5036731;28;20039;-68
2023/03/18 07:25:40;;;;;;;19.00;5.05;;;;;;;;;;5036997;28;20033;-67
2023/03/18 07:28:06;;;;;;;16.40;4.75;;;;;;;;;;5036369;28;20036;-69
2023/03/18 07:30:32;;;;;;;8.85;4.32;;;;;;;;;;5038322;28;20017;-65
2023/03/18 07:32:57;;;;;;;13.77;5.00;;;;;;;;;;5036281;28;20124;-69
2023/03/18 07:35:23;;;;;;;11.10;4.53;;;;;;;;;;5019363;28;20037;-68
2023/03/18 07:37:48;;;;;;;14.65;4.60;;;;;;;;;;5037586;28;20143;-66
2023/03/18 07:40:14;;;;;;;9.90;4.63;;;;;;;;;;5037080;28;20108;-69
2023/03/18 07:42:39;;;;;;;12.95;4.80;;;;;;;;;;5034420;28;20104;-66
2023/03/18 07:45:07;;;;;;;13.95;5.00;;;;;;;;;;5037865;28;20028;-69
2023/03/18 07:47:32;;;;;;;11.98;4.85;;;;;;;;;;5019638;28;20113;-66
2023/03/18 07:49:58;;;;;;;12.70;4.95;;;;;;;;;;5038266;28;20513;-67
2023/03/18 07:52:23;;;;;;;12.00;5.32;;;;;;;;;;5036347;28;20210;-69
2023/03/18 07:54:49;;;;;;;10.55;4.85;;;;;;;;;;5040694;28;20486;-66
2023/03/18 07:57:14;;;;;;;15.13;5.15;;;;;;;;;;5044047;28;20133;-69
2023/03/18 07:59:39;;;;;;;10.10;4.60;;;;;;;;;;5046003;28;20029;-67
2023/03/18 08:02:06;;;;;;;8.98;4.03;;;;;;;;;;5048333;28;20028;-68
2023/03/18 08:04:32;;;;;;;13.15;4.22;;;;;;;;;;5047477;28;20048;-69
2023/03/18 08:06:57;;;;;;;12.75;4.50;;;;;;;;;;5035018;28;20045;-68
2023/03/18 08:09:23;;;;;;;16.42;4.47;;;;;;;;;;5053734;28;20076;-69
2023/03/18 08:11:48;;;;;;;17.83;4.93;;;;;;;;;;5049645;28;20032;-66
2023/03/18 08:14:13;;;;;;;10.07;4.68;;;;;;;;;;5049510;28;20554;-69
2023/03/18 08:16:38;;;;;;;10.73;4.28;;;;;;;;;;5049099;28;20021;-68
2023/03/18 08:19:03;;;;;;;8.43;3.75;;;;;;;;;;5044402;28;20029;-69
2023/03/18 08:21:29;;;;;;;12.45;4.10;;;;;;;;;;5045920;28;20092;-68
2023/03/18 08:23:55;;;;;;;11.20;4.13;;;;;;;;;;5048997;28;20036;-69
2023/03/18 08:26:20;;;;;;;11.80;3.90;;;;;;;;;;5042508;28;20029;-71
2023/03/18 08:28:46;;;;;;;11.52;4.20;;;;;;;;;;5047985;28;20024;-66
2023/03/18 08:31:13;;;;;;;10.88;4.35;;;;;;;;;;5043609;28;20108;-69
2023/03/18 08:33:38;;;;;;;9.65;3.97;;;;;;;;;;5047180;28;20097;-69
2023/03/18 08:36:03;;;;;;;11.95;4.35;;;;;;;;;;5049348;28;20020;-68
2023/03/18 08:38:28;;;;;;;12.45;3.90;;;;;;;;;;5042868;28;20024;-67
2023/03/18 08:40:55;;;;;;;13.18;3.80;;;;;;;;;;5044163;28;20382;-70
2023/03/18 08:43:21;;;;;;;11.93;4.00;;;;;;;;;;5042434;28;20038;-67
2023/03/18 08:45:50;;;;;;;9.98;3.97;;;;;;;;;;5046069;28;20025;-67
2023/03/18 08:48:15;;;;;;;11.77;4.57;;;;;;;;;;5056044;28;20104;-68
2023/03/18 08:50:41;;;;;;;17.42;4.75;;;;;;;;;;5046459;28;20515;-67
2023/03/18 08:53:06;;;;;;;13.48;5.32;;;;;;;;;;5036697;28;20605;-66
2023/03/18 08:55:33;;;;;;;12.70;5.22;;;;;;;;;;5047112;28;20025;-67
2023/03/18 08:57:59;;;;;;;10.38;4.70;;;;;;;;;;5047157;28;20045;-66
2023/03/18 09:00:24;;;;;;;11.63;3.58;;;;;;;;;;5044916;28;20068;-68
2023/03/18 09:02:50;;;;;;;11.02;4.53;;;;;;;;;;5043383;28;20033;-68
2023/03/18 09:05:16;;;;;;;11.18;4.90;;;;;;;;;;5047047;28;20166;-70
2023/03/18 09:07:42;;;;;;;21.45;5.00;;;;;;;;;;5048147;28;20028;-69
2023/03/18 09:10:08;;;;;;;13.15;4.97;;;;;;;;;;5048591;28;20100;-68
2023/03/18 09:12:34;;;;;;;12.43;4.15;;;;;;;;;;5048423;28;20049;-70
2023/03/18 09:15:00;;;;;;;13.98;4.45;;;;;;;;;;5047699;28;20460;-69
2023/03/18 09:17:26;;;;;;;11.77;4.78;;;;;;;;;;5048201;28;20056;-67
2023/03/18 09:19:51;;;;;;;13.30;5.20;;;;;;;;;;5048547;28;20021;-70
2023/03/18 09:22:17;;;;;;;16.05;5.03;;;;;;;;;;5045400;28;20039;-65
2023/03/18 09:24:42;;;;;;;13.18;4.53;;;;;;;;;;5044248;28;20313;-69
2023/03/18 09:27:07;;;;;;;9.68;4.45;;;;;;;;;;5046754;28;20501;-68
2023/03/18 09:29:32;;;;;;;13.48;4.80;;;;;;;;;;5043106;28;20128;-70
2023/03/18 09:31:59;;;;;;;17.73;4.80;;;;;;;;;;5043235;28;20474;-68
2023/03/18 09:34:25;;;;;;;11.23;4.00;;;;;;;;;;5046981;28;20452;-68
2023/03/18 09:36:50;;;;;;;10.65;4.35;;;;;;;;;;5048139;28;20049;-69
2023/03/18 09:39:19;;;;;;;8.20;3.90;;;;;;;;;;5047838;28;20116;-67
2023/03/18 09:41:44;;;;;;;;;;;;;;;;;;5029112;28;20429;-68
2023/03/18 09:44:20;;;;;;;12.27;3.90;;;;;;;;;;5043214;28;19928;-68
2023/03/18 09:47:04;;;;;;;11.15;4.05;;;;;;;;;;5039705;28;20075;-68
2023/03/18 09:49:35;;;;;;;9.02;3.67;;;;;;;;;;5036334;28;20044;-64
2023/03/18 09:52:07;;;;;;;12.10;4.03;;;;;;;;;;5047815;28;20021;-64
2023/03/18 09:54:46;;;;;;;10.77;3.88;;;;;;;;;;5047495;28;20029;-70
2023/03/18 09:57:14;;;;;;;10.20;4.13;;;;;;;;;;5053203;28;20021;-69
2023/03/18 09:59:43;;;;;;;9.63;3.78;;;;;;;;;;5049647;28;20099;-68
2023/03/18 10:02:16;;;;;;;13.07;4.35;;;;;;;;;;5033039;28;20052;-70
2023/03/18 10:05:07;;;;;;;10.10;4.40;;;;;;;;;;5048950;28;20341;-70
2023/03/18 10:07:36;;;;;;;15.90;4.47;;;;;;;;;;5046897;28;20033;-68
2023/03/18 10:10:08;;;;;;;10.05;4.65;;;;;;;;;;5026689;28;20355;-65
2023/03/18 10:12:40;;;;;;;9.10;4.28;;;;;;;;;;5043247;28;20132;-66
2023/03/18 10:15:12;;;;;;;11.40;4.85;;;;;;;;;;5045219;28;20021;-70
2023/03/18 10:17:37;;;;;;;11.02;4.03;;;;;;;;;;5049627;28;20043;-69
2023/03/18 10:20:10;;;;;;;10.63;4.00;;;;;;;;;;5049705;28;20043;-67
2023/03/18 10:22:39;;;;;;;10.90;4.40;;;;;;;;;;5048603;28;20032;-68
2023/03/18 10:25:05;;;;;;;10.05;3.95;;;;;;;;;;5051032;28;20032;-67
2023/03/18 10:27:43;;;;;;;11.23;4.65;;;;;;;;;;5032971;28;20121;-67
2023/03/18 10:30:14;;;;;;;10.63;3.97;;;;;;;;;;5050493;28;20104;-69
2023/03/18 10:32:42;;;;;;;11.65;4.75;;;;;;;;;;5044994;28;20039;-69
2023/03/18 10:35:26;;;;;;;11.82;4.22;;;;;;;;;;5032659;28;20455;-66
2023/03/18 10:37:56;;;;;;;14.00;4.90;;;;;;;;;;5047343;28;20056;-69
2023/03/18 10:40:22;;;;;;;14.60;4.25;;;;;;;;;;5049779;28;20049;-68
2023/03/18 10:42:49;;;;;;;12.25;4.70;;;;;;;;;;5041431;28;20029;-66
2023/03/18 10:45:16;;;;;;;10.73;4.15;;;;;;;;;;5050658;28;20570;-69
2023/03/18 10:47:43;;;;;;;11.77;4.40;;;;;;;;;;5050613;28;20075;-68
2023/03/18 10:50:24;;;;;;;16.48;4.93;;;;;;;;;;5044924;28;20028;-68
2023/03/18 10:52:55;;;;;;;10.73;5.05;;;;;;;;;;5050901;28;20079;-68
2023/03/18 10:55:22;;;;;;;9.65;4.63;;;;;;;;;;5065440;22;20041;-73
2023/03/18 10:57:48;;;;;;;11.95;4.68;;;;;;;;;;5090584;28;20020;-73
2023/03/18 11:00:25;;;;;;;9.70;4.00;;;;;;;;;;5091902;28;20028;-73
2023/03/18 11:02:50;;;;;;;14.68;3.85;;;;;;;;;;5091075;28;20046;-73
2023/03/18 11:05:22;;;;;;;10.23;4.80;;;;;;;;;;5091536;28;20024;-70
2023/03/18 11:07:54;;;;;;;8.27;4.47;;;;;;;;;;5089459;28;20047;-72
2023/03/18 11:10:23;;;;;;;9.90;3.80;;;;;;;;;;5080930;28;20669;-71
2023/03/18 11:12:49;;;;;;;12.38;4.80;;;;;;;;;;5080987;28;20020;-71
2023/03/18 11:15:18;;;;;;;14.93;4.78;;;;;;;;;;5092318;28;20053;-71
2023/03/18 11:17:43;;;;;;;;;;;;;;;;;;5092482;28;20066;-73
2023/03/18 11:20:23;;;;;;;10.43;4.45;;;;;;;;;;5090793;28;19908;-71
2023/03/18 11:22:51;;;;;;;16.55;4.80;;;;;;;;;;5088473;28;20032;-74
2023/03/18 11:25:25;;;;;;;10.52;4.20;;;;;;;;;;5091471;28;20020;-69
2023/03/18 11:28:11;;;;;;;10.45;3.92;;;;;;;;;;5091102;28;20513;-72
2023/03/18 11:30:47;;;;;;;9.00;3.70;;;;;;;;;;5069737;28;20067;-73
2023/03/18 11:33:14;;;;;;;10.23;3.63;;;;;;;;;;5088039;28;20052;-72
2023/03/18 11:35:42;;;;;;;7.88;3.58;;;;;;;;;;5090842;28;20024;-73
2023/03/18 11:38:33;;;;;;;14.13;3.77;;;;;;;;;;5090567;28;20150;-74
2023/03/18 11:41:11;;;;;;;12.60;4.82;;;;;;;;;;5087094;28;20268;-73
2023/03/18 11:43:37;;;;;;;13.05;4.75;;;;;;;;;;5091313;28;20028;-71
2023/03/18 11:46:12;;;;;;;10.07;4.80;;;;;;;;;;5088049;28;20027;-72
2023/03/18 11:48:38;;;;;;;8.68;4.50;;;;;;;;;;5091558;28;20096;-74
2023/03/18 11:51:22;;;;;;;10.27;4.75;;;;;;;;;;5091404;28;20024;-74
2023/03/18 11:53:56;;;;;;;9.85;4.38;;;;;;;;;;5091035;28;20102;-74
2023/03/18 11:56:40;;;;;;;8.98;4.38;;;;;;;;;;5083306;28;20031;-73
2023/03/18 11:59:11;;;;;;;12.52;4.95;;;;;;;;;;5094737;28;20015;-71
2023/03/18 12:01:43;;;;;;;11.40;4.60;;;;;;;;;;5091058;28;20027;-72
2023/03/18 12:04:18;;;;;;;9.75;4.50;;;;;;;;;;5073094;28;20017;-74
2023/03/18 12:06:53;;;;;;;9.75;4.25;;;;;;;;;;5088067;28;20103;-73
2023/03/18 12:09:18;;;;;;;11.88;5.03;;;;;;;;;;5093033;28;20543;-74
2023/03/18 12:11:58;;;;;;;10.00;4.50;;;;;;;;;;5091053;28;20024;-73
2023/03/18 12:14:46;;;;;;;16.20;4.97;;;;;;;;;;5090535;28;20031;-74
2023/03/18 12:17:12;;;;;;;6.78;3.70;;;;;;;;;;5063110;28;20031;-75
2023/03/18 12:19:53;;;;;;;8.50;3.85;;;;;;;;;;5089490;28;20040;-72
2023/03/18 12:22:27;;;;;;;14.65;3.92;;;;;;;;;;5091207;28;20023;-71
2023/03/18 12:25:06;;;;;;;10.75;3.53;;;;;;;;;;5090954;28;20048;-75
2023/03/18 12:27:31;;;;;;;;;;;;;;;;;;5090896;28;20022;-73
2023/03/18 12:30:04;;;;;;;10.13;3.53;;;;;;;;;;5090397;28;19994;-73
2023/03/18 12:32:32;;;;;;;9.35;4.22;;;;;;;;;;5090262;28;20021;-74
2023/03/18 12:35:20;;;;;;;8.75;3.42;;;;;;;;;;5090217;28;20024;-74
2023/03/18 12:37:49;;;;;;;12.45;3.67;;;;;;;;;;5064667;28;20359;-70
2023/03/18 12:40:14;;;;;;;;;;;;;;;;;;5088821;28;20028;-72
2023/03/18 12:42:41;;;;;;;7.65;3.08;;;;;;;;;;5089747;28;19908;-70
2023/03/18 12:45:11;;;;;;;6.57;2.75;;;;;;;;;;5082461;28;20059;-72
2023/03/18 12:47:37;;;;;;;6.78;3.20;;;;;;;;;;5082495;28;20488;-74
2023/03/18 12:50:04;;;;;;;6.47;2.97;;;;;;;;;;5085705;28;20055;-70
2023/03/18 12:52:39;;;;;;;9.93;3.03;;;;;;;;;;5066470;28;20024;-71
2023/03/18 12:55:23;;;;;;;10.27;3.22;;;;;;;;;;5084126;28;20024;-70
2023/03/18 12:57:51;;;;;;;7.53;3.42;;;;;;;;;;5088598;28;20477;-69
2023/03/18 13:00:22;;;;;;;8.40;3.60;;;;;;;;;;5089259;28;20020;-70
2023/03/18 13:03:12;;;;;;;7.43;3.30;;;;;;;;;;5088923;28;20023;-70
2023/03/18 13:05:37;;;;;;;11.05;4.05;;;;;;;;;;5089164;28;20068;-71
2023/03/18 13:08:02;;;;;;;8.63;3.57;;;;;;;;;;5088831;28;20032;-71
2023/03/18 13:10:32;;;;;;;7.93;3.50;;;;;;;;;;5089509;28;20300;-72
2023/03/18 13:12:58;;;;;;;7.60;2.33;;;;;;;;;;5089081;28;20052;-73
2023/03/18 13:15:29;;;;;;;5.68;2.58;;;;;;;;;;5089350;28;20389;-73
2023/03/18 13:17:57;;;;;;;10.07;2.55;;;;;;;;;;5083596;28;20151;-71
2023/03/18 13:20:23;;;;;;;7.47;2.67;;;;;;;;;;5084918;28;20012;-70
2023/03/18 13:22:49;;;;;;;10.52;3.17;;;;;;;;;;5089004;28;20026;-68
2023/03/18 13:25:30;;;;;;;4.82;2.00;;;;;;;;;;5089367;28;20715;-69
2023/03/18 13:28:01;;;;;;;10.85;2.75;;;;;;;;;;5076028;28;20020;-71
2023/03/18 13:30:52;;;;;;;6.40;2.88;;;;;;;;;;5088994;28;20040;-73
2023/03/18 13:33:27;;;;;;;6.97;2.60;;;;;;;;;;5093247;28;20039;-69
2023/03/18 13:35:55;;;;;;;6.72;2.08;;;;;;;;;;5087137;28;20051;-73
2023/03/18 13:38:23;;;;;;;4.85;1.92;;;;;;;;;;5090974;28;20023;-72
2023/03/18 13:41:04;;;;;;;4.97;2.38;;;;;;;;;;5092126;28;20016;-70
2023/03/18 13:43:30;;;;;;;21.58;3.42;;;;;;;;;;5088820;28;20017;-72
2023/03/18 13:45:57;;;;;;;4.78;2.28;;;;;;;;;;5089352;28;20024;-70
2023/03/18 13:48:29;;;;;;;5.93;2.28;;;;;;;;;;5081956;28;20077;-73
2023/03/18 13:50:56;;;;;;;9.95;2.78;;;;;;;;;;5092689;28;20031;-72
2023/03/18 13:53:32;;;;;;;6.63;2.58;;;;;;;;;;5092261;28;20031;-72
2023/03/18 13:55:57;;;;;;;9.93;2.72;;;;;;;;;;5091956;28;20466;-71
2023/03/18 13:58:24;;;;;;;6.30;2.47;;;;;;;;;;5091476;28;20024;-70
2023/03/18 14:00:52;;;;;;;9.70;2.40;;;;;;;;;;5092394;28;20055;-68
2023/03/18 14:03:18;;;;;;;6.35;2.53;;;;;;;;;;5092734;28;20095;-69
2023/03/18 14:05:45;;;;;;;14.13;4.55;;;;;;;;;;5092514;28;20413;-69
2023/03/18 14:08:29;;;;;;;8.90;2.80;;;;;;;;;;5091533;28;20376;-72
2023/03/18 14:11:12;;;;;;;9.85;2.83;;;;;;;;;;5092078;28;20055;-71
2023/03/18 14:13:38;;;;;;;5.75;2.63;;;;;;;;;;5092664;28;20501;-72
2023/03/18 14:16:07;;;;;;;6.47;2.67;;;;;;;;;;5092308;28;20048;-70
2023/03/18 14:18:35;;;;;;;8.80;2.30;;;;;;;;;;5091609;28;20017;-71
2023/03/18 14:21:03;;;;;;;6.38;2.58;;;;;;;;;;5077925;28;20095;-70
2023/03/18 14:23:37;;;;;;;12.68;3.95;;;;;;;;;;5086655;28;20028;-72
2023/03/18 14:26:04;;;;;;;5.53;2.38;;;;;;;;;;5091208;28;20095;-69
2023/03/18 14:28:40;;;;;;;8.13;2.97;;;;;;;;;;5091690;28;20027;-72
2023/03/18 14:31:24;;;;;;;8.23;3.17;;;;;;;;;;5091941;28;20020;-73
2023/03/18 14:33:57;;;;;;;5.95;2.53;;;;;;;;;;5091444;28;20080;-70
2023/03/18 14:36:41;;;;;;;8.52;2.92;;;;;;;;;;5091314;28;20020;-70
2023/03/18 14:39:08;;;;;;;8.68;2.33;;;;;;;;;;5089872;28;20016;-73